createdAt,value
2018-01-23T00:00:32.762Z,22.93
2018-01-23T00:03:01.029Z,23.20
2018-01-23T00:05:28.716Z,23.07
2018-01-23T00:07:56.529Z,23.70
2018-01-23T00:10:24.275Z,22.03
2018-01-23T00:12:52.720Z,23.53
2018-01-23T00:15:20.577Z,23.37
2018-01-23T00:17:48.847Z,23.67
2018-01-23T00:20:16.623Z,22.20
2018-01-23T00:22:44.387Z,23.93
2018-01-23T00:25:12.247Z,24.07
2018-01-23T00:27:39.925Z,23.47
2018-01-23T00:30:07.998Z,23.27
2018-01-23T00:32:37.593Z,23.57
2018-01-23T00:35:05.263Z,23.87
2018-01-23T00:37:33.827Z,21.47
2018-01-23T00:40:02.449Z,21.53
2018-01-23T00:42:31.542Z,24.47
2018-01-23T00:45:01.032Z,22.03
2018-01-23T00:47:29.435Z,23.40
2018-01-23T00:49:57.192Z,19.87
2018-01-23T00:52:25.980Z,21.67
2018-01-23T00:54:54.404Z,22.10
2018-01-23T00:57:22.597Z,23.97
2018-01-23T00:59:50.557Z,25.70
2018-01-23T01:02:19.994Z,22.73
2018-01-23T01:04:48.560Z,23.40
2018-01-23T01:07:16.305Z,23.30
2018-01-23T01:09:43.985Z,24.07
2018-01-23T01:12:11.706Z,23.63
2018-01-23T01:14:39.466Z,21.77
2018-01-23T01:17:07.216Z,24.70
2018-01-23T01:19:35.052Z,23.03
2018-01-23T01:22:03.606Z,25.77
2018-01-23T01:24:31.894Z,23.80
2018-01-23T01:27:01.222Z,23.53
2018-01-23T01:29:29.882Z,23.37
2018-01-23T01:31:57.632Z,21.57
2018-01-23T01:34:26.212Z,22.57
2018-01-23T01:36:53.880Z,20.53
2018-01-23T01:39:21.573Z,21.50
2018-01-23T01:41:50.738Z,24.00
2018-01-23T01:44:18.624Z,25.23
2018-01-23T01:46:47.181Z,19.67
2018-01-23T01:49:15.676Z,23.93
2018-01-23T01:51:43.377Z,22.93
2018-01-23T01:54:11.119Z,26.87
2018-01-23T01:56:39.211Z,25.23
2018-01-23T01:59:07.255Z,27.63
2018-01-23T02:01:35.724Z,27.30
2018-01-23T02:04:03.657Z,27.00
2018-01-23T02:06:31.431Z,23.03
2018-01-23T02:08:59.346Z,25.20
2018-01-23T02:11:27.981Z,28.23
2018-01-23T02:13:56.454Z,24.00
2018-01-23T02:16:24.455Z,23.20
2018-01-23T02:18:52.192Z,24.73
2018-01-23T02:21:20.058Z,25.33
2018-01-23T02:23:47.924Z,24.10
2018-01-23T02:26:15.689Z,23.43
2018-01-23T02:28:43.557Z,24.90
2018-01-23T02:31:12.862Z,25.47
2018-01-23T02:33:40.727Z,21.13
2018-01-23T02:36:08.375Z,25.63
2018-01-23T02:38:36.248Z,24.50
2018-01-23T02:41:04.228Z,26.40
2018-01-23T02:43:32.450Z,27.27
2018-01-23T02:46:00.330Z,26.30
2018-01-23T02:48:28.267Z,24.73
2018-01-23T02:50:56.718Z,25.30
2018-01-23T02:53:24.446Z,28.10
2018-01-23T02:55:52.229Z,24.13
2018-01-23T02:58:20.105Z,27.57
2018-01-23T03:00:47.963Z,28.17
2018-01-23T03:03:16.339Z,28.10
2018-01-23T03:05:44.851Z,21.83
2018-01-23T03:08:12.736Z,28.07
2018-01-23T03:10:41.959Z,20.13
2018-01-23T03:13:09.645Z,24.20
2018-01-23T03:15:37.510Z,26.90
2018-01-23T03:18:05.229Z,24.70
2018-01-23T03:20:33.607Z,25.37
2018-01-23T03:23:02.009Z,25.90
2018-01-23T03:25:29.790Z,29.77
2018-01-23T03:27:58.197Z,27.73
2018-01-23T03:30:26.038Z,25.30
2018-01-23T03:32:53.798Z,27.37
2018-01-23T03:35:22.309Z,28.67
2018-01-23T03:37:50.766Z,23.07
2018-01-23T03:40:19.135Z,28.93
2018-01-23T03:42:47.002Z,27.47
2018-01-23T03:45:14.766Z,30.30
2018-01-23T03:47:42.663Z,28.83
2018-01-23T03:50:11.216Z,27.70
2018-01-23T03:52:39.693Z,27.70
2018-01-23T03:55:07.364Z,31.03
2018-01-23T03:57:35.754Z,29.47
2018-01-23T04:00:03.734Z,25.70
2018-01-23T04:02:31.567Z,26.17
2018-01-23T04:05:00.094Z,31.33
2018-01-23T04:07:28.629Z,28.33
2018-01-23T04:09:56.482Z,27.80
2018-01-23T04:12:24.261Z,28.20
2018-01-23T04:14:51.913Z,28.20
2018-01-23T04:17:19.549Z,32.97
2018-01-23T04:19:47.259Z,25.40
2018-01-23T04:22:15.107Z,29.20
2018-01-23T04:24:42.814Z,27.63
2018-01-23T04:27:11.268Z,25.83
2018-01-23T04:29:38.962Z,30.83
2018-01-23T04:32:07.386Z,28.67
2018-01-23T04:34:35.202Z,29.87
2018-01-23T04:37:04.433Z,27.47
2018-01-23T04:39:32.143Z,26.00
2018-01-23T04:42:00.799Z,28.03
2018-01-23T04:44:29.385Z,28.67
2018-01-23T04:46:57.374Z,30.67
2018-01-23T04:49:25.048Z,28.13
2018-01-23T04:51:54.109Z,28.93
2018-01-23T04:54:23.206Z,27.63
2018-01-23T04:56:51.045Z,27.20
2018-01-23T04:59:19.349Z,31.47
2018-01-23T05:01:47.214Z,33.27
2018-01-23T05:04:14.876Z,33.07
2018-01-23T05:06:42.770Z,30.37
2018-01-23T05:09:10.547Z,28.33
2018-01-23T05:11:38.322Z,30.13
2018-01-23T05:14:06.042Z,30.23
2018-01-23T05:16:34.630Z,32.70
2018-01-23T05:19:03.498Z,31.70
2018-01-23T05:21:33.057Z,33.53
2018-01-23T05:24:01.231Z,31.43
2018-01-23T05:26:29.144Z,31.23
2018-01-23T05:28:57.141Z,28.60
2018-01-23T05:31:25.884Z,28.83
2018-01-23T05:33:53.608Z,28.30
2018-01-23T05:36:22.859Z,34.23
2018-01-23T05:38:50.550Z,29.67
2018-01-23T05:41:19.131Z,34.67
2018-01-23T05:43:47.622Z,31.27
2018-01-23T05:46:16.265Z,29.97
2018-01-23T05:48:44.028Z,32.03
2018-01-23T05:51:11.725Z,33.93
2018-01-23T05:53:39.456Z,32.03
2018-01-23T05:56:07.197Z,33.30
2018-01-23T05:58:35.477Z,32.67
2018-01-23T06:01:03.503Z,39.63
2018-01-23T06:03:32.701Z,35.37
2018-01-23T06:06:01.802Z,36.10
2018-01-23T06:08:30.813Z,36.40
2018-01-23T06:10:59.223Z,34.80
2018-01-23T06:13:26.945Z,37.73
2018-01-23T06:15:54.859Z,35.07
2018-01-23T06:18:22.511Z,33.83
2018-01-23T06:20:50.278Z,36.60
2018-01-23T06:23:18.717Z,35.60
2018-01-23T06:25:46.521Z,38.07
2018-01-23T06:28:14.358Z,38.93
2018-01-23T06:30:42.157Z,38.10
2018-01-23T06:33:09.913Z,34.77
2018-01-23T06:35:37.719Z,39.17
2018-01-23T06:38:06.173Z,39.07
2018-01-23T06:40:33.920Z,40.70
2018-01-23T06:43:01.684Z,40.53
2018-01-23T06:45:29.550Z,38.23
2018-01-23T06:47:57.274Z,41.07
2018-01-23T06:50:25.033Z,40.57
2018-01-23T06:52:53.660Z,39.03
2018-01-23T06:55:22.201Z,43.20
2018-01-23T06:57:50.770Z,42.60
2018-01-23T07:00:19.713Z,40.13
2018-01-23T07:02:50.169Z,42.23
2018-01-23T07:05:18.004Z,38.63
2018-01-23T07:07:45.794Z,42.87
2018-01-23T07:10:13.502Z,37.10
2018-01-23T07:12:41.295Z,43.37
2018-01-23T07:15:09.809Z,43.37
2018-01-23T07:17:38.154Z,44.90
2018-01-23T07:20:06.538Z,44.53
2018-01-23T07:22:34.299Z,41.67
2018-01-23T07:25:02.159Z,42.97
2018-01-23T07:27:29.850Z,46.20
2018-01-23T07:29:57.564Z,43.20
2018-01-23T07:32:25.347Z,38.90
2018-01-23T07:34:53.112Z,38.93
2018-01-23T07:37:21.217Z,38.90
2018-01-23T07:39:48.876Z,43.73
2018-01-23T07:42:17.662Z,39.70
2018-01-23T07:44:45.496Z,44.07
2018-01-23T07:47:13.361Z,40.47
2018-01-23T07:49:41.227Z,40.43
2018-01-23T07:52:08.919Z,39.53
2018-01-23T07:54:37.473Z,44.70
2018-01-23T07:57:06.356Z,40.93
2018-01-23T07:59:34.386Z,42.23
2018-01-23T08:02:02.703Z,40.00
2018-01-23T08:04:31.291Z,39.83
2018-01-23T08:06:58.952Z,39.93
2018-01-23T08:09:27.432Z,38.90
2018-01-23T08:11:55.925Z,45.27
2018-01-23T08:14:23.810Z,41.57
2018-01-23T08:16:52.223Z,41.73
2018-01-23T08:19:20.025Z,40.63
2018-01-23T08:21:48.071Z,44.23
2018-01-23T08:24:15.768Z,35.40
2018-01-23T08:26:43.524Z,41.67
2018-01-23T08:29:11.170Z,40.53
2018-01-23T08:31:39.769Z,38.37
2018-01-23T08:34:07.540Z,42.30
2018-01-23T08:36:35.387Z,37.90
2018-01-23T08:39:03.070Z,39.47
2018-01-23T08:41:31.550Z,35.10
2018-01-23T08:43:59.352Z,41.93
2018-01-23T08:46:27.159Z,36.37
2018-01-23T08:48:56.185Z,37.20
2018-01-23T08:51:24.629Z,41.87
2018-01-23T08:53:52.392Z,44.87
2018-01-23T08:56:20.269Z,41.47
2018-01-23T08:58:48.132Z,41.40
2018-01-23T09:01:16.404Z,38.97
2018-01-23T09:03:44.200Z,38.00
2018-01-23T09:06:11.964Z,35.20
2018-01-23T09:08:39.690Z,36.13
2018-01-23T09:11:07.457Z,39.80
2018-01-23T09:13:35.217Z,34.93
2018-01-23T09:16:03.288Z,32.73
2018-01-23T09:18:31.290Z,36.80
2018-01-23T09:20:59.287Z,40.03
2018-01-23T09:23:27.139Z,34.93
2018-01-23T09:25:55.615Z,38.43
2018-01-23T09:28:24.237Z,33.93
2018-01-23T09:30:52.248Z,32.13
2018-01-23T09:33:19.932Z,35.43
2018-01-23T09:35:49.075Z,34.77
2018-01-23T09:38:17.433Z,31.87
2018-01-23T09:40:45.230Z,31.00
2018-01-23T09:43:13.256Z,37.37
2018-01-23T09:45:41.158Z,32.23
2018-01-23T09:48:08.849Z,35.60
2018-01-23T09:50:36.612Z,35.17
2018-01-23T09:53:04.346Z,34.77
2018-01-23T09:55:32.061Z,40.40
2018-01-23T09:58:00.692Z,39.33
2018-01-23T10:00:29.025Z,32.63
2018-01-23T10:02:57.429Z,31.30
2018-01-23T10:05:25.172Z,30.00
2018-01-23T10:07:52.869Z,32.83
2018-01-23T10:10:21.145Z,30.37
2018-01-23T10:12:49.193Z,36.40
2018-01-23T10:15:16.981Z,36.40
2018-01-23T10:17:44.763Z,35.50
2018-01-23T10:20:12.884Z,31.97
2018-01-23T10:22:40.680Z,25.30
2018-01-23T10:25:08.445Z,27.30
2018-01-23T10:27:36.311Z,26.60
2018-01-23T10:30:05.482Z,26.20
2018-01-23T10:32:33.933Z,22.30
2018-01-23T10:35:02.467Z,24.17
2018-01-23T10:37:30.456Z,23.30
2018-01-23T10:39:58.170Z,33.37
2018-01-23T10:42:26.433Z,26.00
2018-01-23T10:44:55.013Z,23.97
2018-01-23T10:47:23.572Z,24.80
2018-01-23T10:49:51.450Z,24.07
2018-01-23T10:52:20.072Z,20.70
2018-01-23T10:54:48.546Z,22.23
2018-01-23T10:57:17.357Z,22.70
2018-01-23T11:02:19.157Z,24.20
2018-01-23T11:04:46.996Z,23.83
2018-01-23T11:07:14.670Z,20.27
2018-01-23T11:09:42.344Z,23.60
2018-01-23T11:12:10.182Z,20.90
2018-01-23T11:14:38.867Z,22.50
2018-01-23T11:17:09.667Z,22.23
2018-01-23T11:19:39.375Z,20.47
2018-01-23T11:22:08.524Z,23.77
2018-01-23T11:24:37.019Z,24.10
2018-01-23T11:27:04.701Z,21.63
2018-01-23T11:29:33.238Z,21.80
2018-01-23T11:32:01.200Z,24.87
2018-01-23T11:34:28.841Z,21.27
2018-01-23T11:36:56.482Z,23.30
2018-01-23T11:39:24.401Z,25.43
2018-01-23T11:41:52.617Z,24.40
2018-01-23T11:44:21.251Z,24.20
2018-01-23T11:46:49.319Z,24.20
2018-01-23T11:49:17.421Z,27.73
2018-01-23T11:51:45.307Z,26.47
2018-01-23T11:54:13.857Z,23.00
2018-01-23T11:56:42.260Z,27.17
2018-01-23T11:59:09.938Z,26.57
2018-01-23T12:01:38.191Z,26.17
2018-01-23T12:04:06.935Z,22.17
2018-01-23T12:06:35.943Z,24.77
2018-01-23T12:09:04.510Z,25.07
2018-01-23T12:14:04.749Z,24.67
2018-01-23T12:16:32.442Z,25.87
2018-01-23T12:19:00.514Z,21.77
2018-01-23T12:21:29.166Z,24.03
2018-01-23T12:23:57.131Z,24.60
2018-01-23T12:26:25.122Z,24.13
2018-01-23T12:28:53.784Z,24.70
2018-01-23T12:31:21.522Z,26.67
2018-01-23T12:33:50.130Z,24.57
2018-01-23T12:36:22.527Z,26.67
2018-01-23T12:38:50.365Z,26.83
2018-01-23T12:41:18.236Z,20.57
2018-01-23T12:43:47.337Z,25.73
2018-01-23T12:46:18.367Z,27.67
2018-01-23T12:48:46.313Z,27.53
2018-01-23T12:51:16.284Z,25.53
2018-01-23T12:53:45.193Z,27.57
2018-01-23T12:56:14.483Z,29.93
2018-01-23T12:58:42.994Z,30.60
2018-01-23T13:01:11.090Z,26.40
2018-01-23T13:03:38.856Z,27.93
2018-01-23T13:06:06.771Z,29.20
2018-01-23T13:08:35.404Z,26.80
2018-01-23T13:11:03.413Z,31.70
2018-01-23T13:13:31.956Z,31.43
2018-01-23T13:16:00.149Z,28.87
2018-01-23T13:18:28.813Z,29.47
2018-01-23T13:20:56.680Z,27.97
2018-01-23T13:23:24.406Z,29.00
2018-01-23T13:25:52.311Z,28.87
2018-01-23T13:28:20.383Z,26.57
2018-01-23T13:30:48.116Z,27.53
2018-01-23T13:33:15.868Z,30.00
2018-01-23T13:35:46.208Z,26.73
2018-01-23T13:38:14.299Z,26.43
2018-01-23T13:40:42.983Z,28.73
2018-01-23T13:43:10.752Z,25.73
2018-01-23T13:45:38.529Z,27.83
2018-01-23T13:48:06.378Z,27.30
2018-01-23T13:50:34.720Z,24.77
2018-01-23T13:53:02.516Z,26.03
2018-01-23T13:55:30.230Z,26.30
2018-01-23T13:57:58.862Z,25.77
2018-01-23T14:00:26.625Z,21.50
2018-01-23T14:02:56.570Z,23.57
2018-01-23T14:05:26.255Z,23.03
2018-01-23T14:07:55.448Z,27.33
2018-01-23T14:10:23.930Z,21.90
2018-01-23T14:12:54.485Z,27.07
2018-01-23T14:15:22.721Z,23.10
2018-01-23T14:17:50.494Z,26.53
2018-01-23T14:20:18.167Z,22.63
2018-01-23T14:22:46.122Z,23.97
2018-01-23T14:25:13.885Z,21.87
2018-01-23T14:27:41.648Z,23.67
2018-01-23T14:30:09.515Z,24.17
2018-01-23T14:32:37.676Z,24.53
2018-01-23T14:35:07.241Z,24.30
2018-01-23T14:37:34.973Z,22.20
2018-01-23T14:40:03.844Z,22.57
2018-01-23T14:42:31.815Z,22.67
2018-01-23T14:44:59.679Z,21.37
2018-01-23T14:47:27.544Z,22.67
2018-01-23T14:49:55.310Z,25.73
2018-01-23T14:52:23.070Z,27.80
2018-01-23T14:54:50.981Z,25.13
2018-01-23T14:57:19.424Z,26.17
2018-01-23T14:59:47.802Z,25.13
2018-01-23T15:02:16.206Z,27.33
2018-01-23T15:04:43.965Z,27.83
2018-01-23T15:07:11.636Z,24.90
2018-01-23T15:09:39.879Z,27.47
2018-01-23T15:12:08.392Z,26.90
2018-01-23T15:14:37.501Z,27.90
2018-01-23T15:17:06.444Z,28.77
2018-01-23T15:19:34.316Z,31.43
2018-01-23T15:22:03.022Z,26.17
2018-01-23T15:24:30.992Z,27.50
2018-01-23T15:26:58.839Z,27.57
2018-01-23T15:29:27.641Z,26.63
2018-01-23T15:31:55.479Z,28.60
2018-01-23T15:34:23.491Z,28.53
2018-01-23T15:36:51.943Z,28.33
2018-01-23T15:39:21.050Z,28.77
2018-01-23T15:41:50.353Z,27.77
2018-01-23T15:44:19.844Z,28.00
2018-01-23T15:46:48.410Z,26.27
2018-01-23T15:49:18.525Z,28.10
2018-01-23T15:51:46.390Z,28.33
2018-01-23T15:54:14.870Z,29.23
2018-01-23T15:56:43.044Z,27.70
2018-01-23T15:59:11.120Z,28.83
2018-01-23T16:01:40.212Z,26.63
2018-01-23T16:04:08.897Z,26.27
2018-01-23T16:06:36.849Z,33.97
2018-01-23T16:09:04.626Z,29.53
2018-01-23T16:11:32.433Z,31.30
2018-01-23T16:14:01.549Z,29.83
2018-01-23T16:16:29.690Z,29.10
2018-01-23T16:18:57.420Z,29.27
2018-01-23T16:21:26.427Z,33.00
2018-01-23T16:23:54.117Z,28.57
2018-01-23T16:26:22.654Z,27.67
2018-01-23T16:28:51.016Z,27.33
2018-01-23T16:31:18.899Z,27.80
2018-01-23T16:33:48.561Z,30.80
2018-01-23T16:36:17.683Z,25.33
2018-01-23T16:38:45.733Z,28.20
2018-01-23T16:41:13.950Z,27.23
2018-01-23T16:43:41.813Z,30.27
2018-01-23T16:46:10.124Z,29.77
2018-01-23T16:48:38.013Z,30.40
2018-01-23T16:51:06.498Z,29.37
2018-01-23T16:53:34.555Z,26.10
2018-01-23T16:56:03.841Z,29.57
2018-01-23T16:58:32.430Z,28.63
2018-01-23T17:01:02.000Z,27.30
2018-01-23T17:03:29.857Z,28.37
2018-01-23T17:08:30.403Z,29.03
2018-01-23T17:10:58.268Z,26.67
2018-01-23T17:13:26.851Z,28.73
2018-01-23T17:15:54.683Z,25.03
2018-01-23T17:18:22.389Z,30.13
2018-01-23T17:20:51.909Z,26.67
2018-01-23T17:23:19.749Z,26.13
2018-01-23T17:25:47.742Z,28.63
2018-01-23T17:28:17.550Z,27.47
2018-01-23T17:30:45.393Z,28.43
2018-01-23T17:33:13.159Z,28.23
2018-01-23T17:38:14.300Z,29.00
2018-01-23T17:40:42.334Z,27.77
2018-01-23T17:43:11.096Z,27.43
2018-01-23T17:45:39.742Z,29.27
2018-01-23T17:48:08.457Z,27.30
2018-01-23T17:50:37.848Z,27.33
2018-01-23T17:53:05.713Z,24.43
2018-01-23T17:55:34.317Z,26.70
2018-01-23T18:00:35.759Z,25.13
2018-01-23T18:03:03.826Z,26.87
2018-01-23T18:08:03.453Z,26.90
2018-01-23T18:10:32.200Z,24.57
2018-01-23T18:12:59.942Z,26.67
2018-01-23T18:15:28.426Z,25.27
2018-01-23T18:17:57.171Z,26.43
2018-01-23T18:20:27.138Z,26.73
2018-01-23T18:22:54.882Z,25.87
2018-01-23T18:25:24.495Z,24.00
2018-01-23T18:27:53.675Z,23.97
2018-01-23T18:30:21.650Z,26.93
2018-01-23T18:32:49.593Z,25.90
2018-01-23T18:35:17.397Z,25.73
2018-01-23T18:37:45.221Z,24.90
2018-01-23T18:40:13.086Z,24.57
2018-01-23T18:45:13.248Z,26.93
2018-01-23T18:47:41.763Z,27.80
2018-01-23T18:50:09.566Z,27.80
2018-01-23T18:52:37.423Z,29.90
2018-01-23T18:55:05.408Z,28.23
2018-01-23T18:57:34.000Z,27.80
2018-01-23T19:00:01.843Z,30.40
2018-01-23T19:02:30.935Z,25.93
2018-01-23T19:04:59.569Z,26.33
2018-01-23T19:07:28.202Z,27.23
2018-01-23T19:12:29.260Z,27.47
2018-01-23T19:14:57.127Z,28.10
2018-01-23T19:17:25.092Z,27.60
2018-01-23T19:19:52.730Z,26.90
2018-01-23T19:22:20.385Z,24.67
2018-01-23T19:24:48.189Z,25.60
2018-01-23T19:27:16.149Z,26.27
2018-01-23T19:29:43.794Z,27.30
2018-01-23T19:32:11.487Z,22.33
2018-01-23T19:34:40.040Z,22.70
2018-01-23T19:37:08.058Z,27.57
2018-01-23T19:39:36.532Z,23.93
2018-01-23T19:42:04.917Z,22.70
2018-01-23T19:44:33.423Z,22.10
2018-01-23T19:47:01.451Z,21.43
2018-01-23T19:49:29.951Z,25.53
2018-01-23T19:51:58.593Z,24.43
2018-01-23T19:54:26.793Z,23.23
2018-01-23T19:56:54.453Z,20.27
2018-01-23T19:59:22.240Z,25.43
2018-01-23T20:01:50.877Z,25.03
2018-01-23T20:04:18.640Z,21.73
2018-01-23T20:06:46.779Z,26.43
2018-01-23T20:09:14.762Z,24.03
2018-01-23T20:11:44.963Z,22.93
2018-01-23T20:14:13.249Z,21.77
2018-01-23T20:16:43.508Z,25.50
2018-01-23T20:19:11.577Z,21.80
2018-01-23T20:21:39.543Z,20.47
2018-01-23T20:24:07.536Z,23.13
2018-01-23T20:29:08.711Z,20.73
2018-01-23T20:31:37.536Z,20.57
2018-01-23T20:34:07.000Z,18.17
2018-01-23T20:36:35.639Z,18.60
2018-01-23T20:39:05.259Z,16.90
2018-01-23T20:41:33.849Z,18.87
2018-01-23T20:46:33.556Z,19.03
2018-01-23T20:49:01.424Z,17.93
2018-01-23T20:51:29.285Z,17.33
2018-01-23T20:53:57.056Z,18.33
2018-01-23T20:56:25.439Z,19.00
2018-01-23T20:58:53.682Z,16.07
2018-01-23T21:01:22.327Z,16.53
2018-01-23T21:03:50.830Z,17.87
2018-01-23T21:06:18.633Z,17.30
2018-01-23T21:08:46.374Z,16.07
2018-01-23T21:11:14.603Z,15.27
2018-01-23T21:13:43.149Z,17.10
2018-01-23T21:16:11.677Z,17.07
2018-01-23T21:18:42.471Z,16.43
2018-01-23T21:21:11.254Z,16.27
2018-01-23T21:23:39.054Z,15.60
2018-01-23T21:26:06.987Z,15.40
2018-01-23T21:28:35.243Z,16.63
2018-01-23T21:31:04.019Z,15.97
2018-01-23T21:33:31.915Z,15.67
2018-01-23T21:35:59.598Z,14.70
2018-01-23T21:38:27.337Z,14.90
2018-01-23T21:40:55.510Z,14.20
2018-01-23T21:43:23.377Z,13.53
2018-01-23T21:45:51.857Z,13.03
2018-01-23T21:48:20.298Z,13.93
2018-01-23T21:50:49.400Z,15.87
2018-01-23T21:53:17.948Z,14.20
2018-01-23T21:55:45.819Z,13.47
2018-01-23T21:58:15.085Z,12.67
2018-01-23T22:00:43.666Z,13.33
2018-01-23T22:03:11.683Z,12.37
2018-01-23T22:05:40.173Z,13.93
2018-01-23T22:08:08.091Z,13.63
2018-01-23T22:10:37.283Z,13.20
2018-01-23T22:13:10.310Z,13.70
2018-01-23T22:15:41.689Z,12.07
2018-01-23T22:18:09.429Z,12.73
2018-01-23T22:20:38.080Z,13.23
2018-01-23T22:23:07.839Z,14.17
2018-01-23T22:25:39.543Z,12.43
2018-01-23T22:28:07.324Z,13.17
2018-01-23T22:30:35.869Z,12.77
2018-01-23T22:33:04.377Z,13.73
2018-01-23T22:35:32.055Z,13.20
2018-01-23T22:37:59.881Z,12.20
2018-01-23T22:40:27.784Z,12.60
2018-01-23T22:42:56.333Z,12.60
2018-01-23T22:45:24.468Z,12.30
2018-01-23T22:47:52.258Z,11.87
2018-01-23T22:50:20.127Z,12.50
2018-01-23T22:52:47.939Z,11.13
2018-01-23T22:55:16.590Z,11.30
2018-01-23T22:57:44.336Z,11.33
2018-01-23T23:00:12.595Z,11.17
2018-01-23T23:02:41.297Z,10.90
2018-01-23T23:05:13.220Z,10.57
2018-01-23T23:07:43.146Z,10.57
2018-01-23T23:10:14.683Z,9.67
2018-01-23T23:12:43.986Z,9.30
2018-01-23T23:15:12.508Z,8.67
2018-01-23T23:17:43.517Z,9.43
2018-01-23T23:20:14.802Z,9.23
2018-01-23T23:22:45.033Z,9.73
2018-01-23T23:25:31.618Z,9.03
2018-01-23T23:28:00.860Z,8.80
2018-01-23T23:30:29.713Z,7.73
2018-01-23T23:32:57.366Z,8.20
2018-01-23T23:35:26.198Z,7.80
2018-01-23T23:37:56.901Z,8.20
2018-01-23T23:40:27.021Z,7.70
2018-01-23T23:42:55.687Z,8.60
2018-01-23T23:45:23.605Z,7.57
2018-01-23T23:47:52.243Z,7.40
2018-01-23T23:50:20.003Z,7.87
2018-01-23T23:52:48.719Z,7.20
2018-01-23T23:55:17.269Z,7.47
2018-01-23T23:57:46.411Z,7.67
